Belden, Mississippi
Current Conditions -  °F | °C
As of 6:08 PM on Sunday 25 Jan 2015 (Local Time) from KTUP Reporting Station
Moderate Rain Moderate Rain  
Wind Chill: 42°   Ceiling: 4100
Heat Index: 46°   Visibility: 5mi
Dew Point: 42°   Wind: 7mph
Humidity: 86%   Direction: 290°WNW
Pressure: 29.81"   Gusts: NA
Location:  34.31°N, 88.79°W
Report Text: KTUP 260008Z 29006KT 5SM RA BR SCT033 OVC041 08/06 A2981 RMK AO2 P0007 T00780056
Loading
Personal Weather Stations






























Interactive Weather Map New forecast layout! Learn more

10-Day Weather Forecast

Advertisements
Track Severe Weather on mobile